Time;durP1;ratioP1;P1;durP2;ratioP2;P2;SDS_P1;SDS_P2;PMS_P1;PMS_P2;Temp;Humidity;BMP_temperature;BMP_pressure;BME280_temperature;BME280_humidity;BME280_pressure;Samples;Min_cycle;Max_cycle;Signal;HPM_P1;HPM_P2
2021/11/23 00:01:25;;;;;;;58.10;27.42;;;;;;;4.12;87.40;97810.34;1668584;86;21070;-73
2021/11/23 00:03:51;;;;;;;60.70;26.90;;;;;;;4.11;87.41;97816.02;1669357;86;21050;-73
2021/11/23 00:06:18;;;;;;;66.67;28.75;;;;;;;4.12;87.34;97816.47;1685866;85;20949;-73
2021/11/23 00:08:45;;;;;;;67.20;29.85;;;;;;;4.13;87.28;97819.95;1692898;85;21474;-73
2021/11/23 00:11:12;;;;;;;67.32;28.17;;;;;;;4.13;87.15;97822.56;1688351;85;21025;-73
2021/11/23 00:13:39;;;;;;;64.42;29.12;;;;;;;4.11;87.03;97818.64;1680655;84;21033;-73
2021/11/23 00:16:06;;;;;;;61.42;27.32;;;;;;;4.11;87.38;97823.03;1679781;85;21070;-74
2021/11/23 00:18:32;;;;;;;58.30;26.27;;;;;;;4.12;87.33;97824.34;1681985;85;21006;-73
2021/11/23 00:20:59;;;;;;;59.67;25.90;;;;;;;4.13;87.30;97823.88;1683168;85;21037;-74
2021/11/23 00:23:27;;;;;;;59.70;27.00;;;;;;;4.14;87.59;97823.88;1678450;85;20970;-73
2021/11/23 00:25:56;;;;;;;62.65;27.90;;;;;;;4.16;87.23;97829.97;1663847;85;21064;-73
2021/11/23 00:28:25;;;;;;;60.73;27.30;;;;;;;4.16;87.24;97828.66;1659710;86;20976;-73
2021/11/23 00:30:53;;;;;;;53.92;25.48;;;;;;;4.18;87.25;97829.97;1661531;86;21021;-74
2021/11/23 00:33:20;;;;;;;48.45;23.80;;;;;;;4.19;87.32;97838.29;1655941;85;21026;-74
2021/11/23 00:35:49;;;;;;;52.25;23.90;;;;;;;4.19;87.87;97835.66;1662224;85;21097;-73
2021/11/23 00:38:17;;;;;;;54.25;26.50;;;;;;;4.19;87.61;97833.89;1682770;84;21454;-73
2021/11/23 00:40:44;;;;;;;56.83;25.50;;;;;;;4.22;87.34;97831.69;1669592;85;21431;-73
2021/11/23 00:43:11;;;;;;;49.08;23.35;;;;;;;4.21;87.50;97832.58;1670617;85;21065;-73
2021/11/23 00:45:42;;;;;;;58.68;25.92;;;;;;;4.23;87.59;97830.38;1679566;84;21045;-74
2021/11/23 00:48:11;;;;;;;50.75;23.92;;;;;;;4.23;87.39;97843.92;1685599;84;21053;-73
2021/11/23 00:50:38;;;;;;;52.33;25.15;;;;;;;4.25;87.41;97842.17;1686015;83;21029;-73
2021/11/23 00:53:07;;;;;;;49.93;24.70;;;;;;;4.25;87.22;97844.80;1687505;84;21058;-73
2021/11/23 00:55:36;;;;;;;48.98;23.98;;;;;;;4.25;87.32;97846.54;1686166;84;20979;-73
2021/11/23 00:58:02;;;;;;;50.67;25.85;;;;;;;4.25;88.27;97846.54;1687278;84;20966;-73
2021/11/23 01:00:29;;;;;;;48.50;23.30;;;;;;;4.25;87.68;97850.05;1700904;83;21471;-73
2021/11/23 01:02:58;;;;;;;47.53;23.65;;;;;;;4.24;87.47;97849.63;1676795;84;21563;-73
2021/11/23 01:05:27;;;;;;;51.75;23.55;;;;;;;4.25;87.51;97846.11;1684127;85;21411;-73
2021/11/23 01:07:55;;;;;;;45.45;22.67;;;;;;;4.26;87.57;97853.09;1682835;83;21427;-73
2021/11/23 01:10:23;;;;;;;42.67;22.37;;;;;;;4.28;87.59;97851.31;1691947;83;21411;-73
2021/11/23 01:12:50;;;;;;;44.13;21.40;;;;;;;4.30;87.62;97853.51;1688530;83;21507;-73
2021/11/23 01:15:17;;;;;;;48.20;23.55;;;;;;;4.31;87.55;97857.87;1686125;83;21002;-73
2021/11/23 01:17:45;;;;;;;48.45;23.25;;;;;;;4.33;87.66;97852.62;1683204;84;21025;-73
2021/11/23 01:20:13;;;;;;;43.05;21.62;;;;;;;4.34;87.47;97861.80;1679902;83;21010;-73
2021/11/23 01:22:43;;;;;;;40.17;22.05;;;;;;;4.36;87.59;97855.20;1693005;84;21053;-73
2021/11/23 01:25:11;;;;;;;44.83;21.70;;;;;;;4.36;87.98;97840.77;1697679;84;21020;-73
2021/11/23 01:27:40;;;;;;;41.50;19.40;;;;;;;4.36;87.71;97852.15;1654253;85;21545;-73
2021/11/23 01:30:11;;;;;;;42.20;20.72;;;;;;;4.40;87.79;97852.14;1666141;85;21013;-73
2021/11/23 01:32:39;;;;;;;46.48;22.07;;;;;;;4.43;87.39;97850.36;1679509;85;20983;-73
2021/11/23 01:35:08;;;;;;;45.45;20.95;;;;;;;4.47;87.44;97858.64;1681724;85;21025;-73
2021/11/23 01:37:36;;;;;;;39.30;19.32;;;;;;;4.51;87.64;97852.92;1656522;86;21037;-73
2021/11/23 01:40:04;;;;;;;40.25;19.50;;;;;;;4.55;87.76;97859.01;1659051;85;20982;-73
2021/11/23 01:42:30;;;;;;;37.35;18.37;;;;;;;4.56;88.34;97859.44;1679072;85;21595;-72
2021/11/23 01:44:57;;;;;;;38.28;19.37;;;;;;;4.59;88.52;97862.93;1689486;84;20989;-73
2021/11/23 01:47:23;;;;;;;38.13;18.52;;;;;;;4.65;88.56;97861.14;1683094;84;20997;-73
2021/11/23 01:49:50;;;;;;;38.05;18.27;;;;;;;4.65;89.23;97862.45;1660529;85;20946;-73
2021/11/23 01:52:17;;;;;;;37.67;18.12;;;;;;;4.70;88.86;97869.39;1682371;84;21028;-73
2021/11/23 01:54:43;;;;;;;34.70;16.05;;;;;;;4.68;89.24;97869.86;1701800;84;21005;-73
2021/11/23 01:57:11;;;;;;;35.98;18.02;;;;;;;4.64;89.49;97870.75;1668905;84;21021;-73
2021/11/23 01:59:38;;;;;;;34.08;17.25;;;;;;;4.71;89.06;97864.59;1661593;85;20977;-73
2021/11/23 02:02:05;;;;;;;40.73;19.35;;;;;;;4.78;89.21;97869.78;1671107;84;21065;-73
2021/11/23 02:04:31;;;;;;;37.08;17.62;;;;;;;4.81;89.12;97868.45;1699512;84;21332;-73
2021/11/23 02:06:58;;;;;;;34.18;16.95;;;;;;;4.83;89.05;97868.88;1702112;84;21032;-73
2021/11/23 02:09:25;;;;;;;35.52;16.80;;;;;;;4.86;89.01;97872.77;1692849;84;21431;-73
2021/11/23 02:11:52;;;;;;;33.88;17.70;;;;;;;4.88;89.01;97869.70;1695702;84;21049;-73
2021/11/23 02:14:20;;;;;;;34.98;16.65;;;;;;;4.89;89.06;97862.25;1687467;83;21013;-73
2021/11/23 02:16:49;;;;;;;36.68;18.02;;;;;;;4.85;89.04;97869.72;1675146;84;21049;-74
2021/11/23 02:19:15;;;;;;;38.58;18.77;;;;;;;4.88;89.12;97868.81;1656681;85;21029;-73
2021/11/23 02:21:42;;;;;;;32.85;18.00;;;;;;;4.90;88.93;97870.97;1664498;85;21078;-74
2021/11/23 02:24:10;;;;;;;37.17;18.23;;;;;;;4.82;89.08;97875.44;1640897;87;21074;-73
2021/11/23 02:26:36;;;;;;;35.60;18.70;;;;;;;4.80;89.27;97876.77;1641118;87;21093;-73
2021/11/23 02:29:04;;;;;;;38.73;19.45;;;;;;;4.81;88.48;97884.21;1641119;87;21431;-73
2021/11/23 02:31:31;;;;;;;38.28;18.77;;;;;;;4.79;88.54;97882.02;1649297;84;20943;-73
2021/11/23 02:33:58;;;;;;;37.23;18.05;;;;;;;4.77;88.43;97883.34;1682319;85;21018;-73
2021/11/23 02:36:25;;;;;;;36.03;18.60;;;;;;;4.72;88.56;97879.45;1693116;84;21030;-73
2021/11/23 02:38:54;;;;;;;34.75;17.37;;;;;;;4.74;88.67;97880.30;1681251;85;21482;-72
2021/11/23 02:41:22;;;;;;;40.73;19.10;;;;;;;4.72;88.68;97879.88;1682539;84;21021;-72
2021/11/23 02:43:50;;;;;;;38.78;19.07;;;;;;;4.71;88.73;97882.97;1674999;84;21059;-72
2021/11/23 02:46:17;;;;;;;39.65;19.17;;;;;;;4.68;88.65;97886.03;1669747;85;21006;-72
2021/11/23 02:48:44;;;;;;;34.90;17.57;;;;;;;4.67;88.57;97881.67;1669367;85;21029;-72
2021/11/23 02:53:37;;;;;;;34.33;17.90;;;;;;;4.67;88.67;97884.30;1670110;84;21498;-73
2021/11/23 02:56:04;;;;;;;37.28;18.00;;;;;;;4.67;88.76;97886.92;1675519;84;20970;-72
2021/11/23 02:58:33;;;;;;;39.42;16.80;;;;;;;4.67;88.66;97886.49;1687198;85;20982;-73
2021/11/23 03:01:04;;;;;;;35.03;17.10;;;;;;;4.67;88.60;97890.43;1680131;84;21016;-72
2021/11/23 03:03:31;;;;;;;36.25;17.92;;;;;;;4.66;88.64;97892.63;1667395;86;21086;-72
2021/11/23 03:05:59;;;;;;;31.68;15.40;;;;;;;4.65;88.74;97896.12;1669112;85;21018;-73
2021/11/23 03:08:26;;;;;;;31.80;17.45;;;;;;;4.63;89.22;97891.33;1670133;84;20986;-72
2021/11/23 03:10:54;;;;;;;33.42;16.67;;;;;;;4.62;88.92;97895.70;1669594;85;21018;-72
2021/11/23 03:13:21;;;;;;;32.23;15.90;;;;;;;4.64;89.16;97901.41;1669554;86;20995;-73
2021/11/23 03:15:49;;;;;;;34.60;16.50;;;;;;;4.63;89.21;97904.45;1646890;85;21492;-72
2021/11/23 03:18:15;;;;;;;32.35;16.62;;;;;;;4.64;89.06;97905.34;1669474;85;21014;-73
2021/11/23 03:20:47;;;;;;;31.50;17.23;;;;;;;4.64;89.53;97909.28;1669511;85;21534;-73
2021/11/23 03:23:13;;;;;;;33.00;16.40;;;;;;;4.65;89.16;97912.33;1668841;85;21100;-73
2021/11/23 03:25:40;;;;;;;30.05;15.63;;;;;;;4.66;89.34;97908.38;1669307;86;21018;-73
2021/11/23 03:28:07;;;;;;;31.70;16.10;;;;;;;4.67;89.36;97907.50;1669347;85;21112;-73
2021/11/23 03:30:36;;;;;;;30.60;15.48;;;;;;;4.68;89.36;97910.55;1669093;86;20990;-73
2021/11/23 03:33:05;;;;;;;32.70;15.88;;;;;;;4.67;89.23;97903.56;1678180;85;21092;-73
2021/11/23 03:35:37;;;;;;;31.95;15.95;;;;;;;4.69;89.46;97909.66;1654002;86;21950;-73
2021/11/23 03:38:07;;;;;;;31.55;15.95;;;;;;;4.70;89.25;97907.45;1668990;85;21073;-73
2021/11/23 03:40:37;;;;;;;30.92;15.78;;;;;;;4.70;88.93;97907.91;1670240;85;20986;-72
2021/11/23 03:43:05;;;;;;;27.65;14.53;;;;;;;4.71;89.22;97904.40;1669236;85;21022;-73
2021/11/23 03:45:32;;;;;;;29.10;14.75;;;;;;;4.70;89.05;97904.83;1680970;85;21608;-73
2021/11/23 03:48:01;;;;;;;28.47;14.00;;;;;;;4.71;89.50;97905.71;1679566;84;21057;-73
2021/11/23 03:50:28;;;;;;;30.85;15.03;;;;;;;4.72;89.74;97914.02;1678352;85;21037;-73
2021/11/23 03:52:56;;;;;;;28.40;14.05;;;;;;;4.71;89.54;97913.59;1679840;85;20990;-73
2021/11/23 03:55:27;;;;;;;29.90;15.85;;;;;;;4.71;89.59;97912.27;1683497;84;21042;-73
2021/11/23 03:57:55;;;;;;;30.92;15.23;;;;;;;4.72;89.65;97918.83;1674719;84;21026;-73
2021/11/23 04:00:23;;;;;;;30.57;15.60;;;;;;;4.74;89.33;97910.95;1676456;85;20986;-73
2021/11/23 04:02:51;;;;;;;28.02;13.98;;;;;;;4.74;89.71;97917.52;1676258;85;20990;-73
2021/11/23 04:05:18;;;;;;;31.17;14.80;;;;;;;4.75;89.39;97917.94;1682577;85;21041;-73
2021/11/23 04:07:45;;;;;;;31.07;14.75;;;;;;;4.77;89.12;97920.09;1683139;85;21057;-73
2021/11/23 04:10:16;;;;;;;26.60;14.28;;;;;;;4.76;89.43;97917.05;1685261;85;21487;-73
2021/11/23 04:12:46;;;;;;;27.95;13.93;;;;;;;4.77;89.50;97919.25;1683677;84;21034;-74
2021/11/23 04:15:16;;;;;;;33.18;13.90;;;;;;;4.74;89.92;97922.77;1677629;84;21033;-73
2021/11/23 04:17:44;;;;;;;29.07;13.65;;;;;;;4.78;89.47;97926.23;1666632;86;21045;-73
2021/11/23 04:20:13;;;;;;;32.13;14.35;;;;;;;4.82;89.37;97921.39;1667120;86;21030;-73
2021/11/23 04:22:41;;;;;;;28.45;14.23;;;;;;;4.85;89.36;97934.05;1674439;84;21057;-73
2021/11/23 04:25:13;;;;;;;29.15;13.48;;;;;;;4.87;89.41;97934.05;1660426;86;21085;-73
2021/11/23 04:27:40;;;;;;;32.65;15.60;;;;;;;4.91;89.50;97934.88;1683201;85;21017;-73
2021/11/23 04:30:10;;;;;;;29.20;13.78;;;;;;;4.96;89.62;97936.60;1664316;85;21060;-73
2021/11/23 04:32:40;;;;;;;28.40;13.20;;;;;;;5.03;89.56;97946.62;1682357;85;21061;-73
2021/11/23 04:35:07;;;;;;;28.95;13.68;;;;;;;5.08;89.51;97946.57;1640985;87;21093;-73
2021/11/23 04:37:34;;;;;;;28.32;14.15;;;;;;;5.14;89.62;97945.20;1641024;86;21038;-73
2021/11/23 04:40:02;;;;;;;29.35;13.28;;;;;;;5.20;89.58;97946.48;1639022;87;21074;-72
2021/11/23 04:42:29;;;;;;;28.77;13.88;;;;;;;5.25;89.60;97950.37;1667924;85;21060;-73
2021/11/23 04:44:55;;;;;;;29.67;13.53;;;;;;;5.29;89.38;97947.69;1679443;84;21124;-72
2021/11/23 04:47:23;;;;;;;30.60;13.28;;;;;;;5.34;89.36;97952.03;1675135;85;21017;-73
2021/11/23 04:49:52;;;;;;;28.65;13.98;;;;;;;5.35;89.28;97948.55;1673077;85;21069;-73
2021/11/23 04:52:18;;;;;;;28.83;13.90;;;;;;;5.36;89.30;97955.54;1683506;84;20997;-73
2021/11/23 04:54:45;;;;;;;35.43;15.40;;;;;;;5.39;89.59;97957.69;1683441;84;21048;-73
2021/11/23 04:57:12;;;;;;;30.55;14.50;;;;;;;5.43;89.58;97960.30;1675111;85;21446;-73
2021/11/23 04:59:39;;;;;;;32.75;14.33;;;;;;;5.40;89.05;97958.11;1640844;86;21482;-73
2021/11/23 05:02:05;;;;;;;34.95;15.60;;;;;;;5.36;88.88;97962.96;1641516;87;21022;-73
2021/11/23 05:04:32;;;;;;;34.63;15.75;;;;;;;5.33;88.54;97961.70;1640696;87;21057;-73
2021/11/23 05:06:59;;;;;;;37.90;16.50;;;;;;;5.26;88.53;97960.88;1645545;84;21072;-73
2021/11/23 05:09:26;;;;;;;34.55;14.80;;;;;;;5.18;88.63;97956.11;1673977;84;21331;-73
2021/11/23 05:11:56;;;;;;;37.42;17.05;;;;;;;5.00;89.43;97958.02;1679271;84;21006;-73
2021/11/23 05:14:25;;;;;;;38.00;15.90;;;;;;;4.94;89.55;97961.98;1677128;85;21033;-73
2021/11/23 05:16:52;;;;;;;33.83;15.85;;;;;;;4.91;89.33;97963.34;1668854;84;21479;-73
2021/11/23 05:19:20;;;;;;;36.03;15.20;;;;;;;4.86;89.96;97963.36;1639918;87;21010;-73
2021/11/23 05:21:47;;;;;;;31.87;14.07;;;;;;;4.82;90.18;97968.66;1653543;85;21487;-73
2021/11/23 05:24:14;;;;;;;37.40;17.17;;;;;;;4.71;91.09;97964.36;1669407;86;21034;-73
2021/11/23 05:26:43;;;;;;;36.83;15.78;;;;;;;4.71;90.66;97973.97;1669432;86;21065;-73
2021/11/23 05:29:10;;;;;;;35.08;15.83;;;;;;;4.63;91.60;97977.95;1669539;85;21121;-73
2021/11/23 05:31:38;;;;;;;36.85;16.12;;;;;;;4.64;90.47;97973.13;1669413;86;21446;-73
2021/11/23 05:34:06;;;;;;;37.35;16.57;;;;;;;4.64;90.28;97977.53;1669421;84;21022;-73
2021/11/23 05:36:33;;;;;;;41.15;17.48;;;;;;;4.62;90.37;97986.26;1672930;85;21056;-73
2021/11/23 05:39:00;;;;;;;37.30;16.62;;;;;;;4.61;90.01;97992.40;1676000;84;20994;-73
2021/11/23 05:41:26;;;;;;;37.93;15.93;;;;;;;4.60;90.66;97988.03;1674775;84;21546;-73
2021/11/23 05:43:55;;;;;;;37.75;15.90;;;;;;;4.60;90.28;97989.77;1669006;85;21042;-73
2021/11/23 05:46:21;;;;;;;41.15;17.48;;;;;;;4.59;91.50;97995.48;1681464;84;21462;-73
2021/11/23 05:48:48;;;;;;;35.92;15.85;;;;;;;4.57;90.53;97984.11;1696432;84;20937;-73
2021/11/23 05:51:14;;;;;;;42.20;16.40;;;;;;;4.55;91.29;97998.12;1687278;84;21013;-74
2021/11/23 05:53:41;;;;;;;38.73;18.17;;;;;;;4.54;90.49;97993.75;1687462;84;21021;-73
2021/11/23 05:56:08;;;;;;;32.23;15.20;;;;;;;4.54;90.36;97998.58;1670293;85;21042;-73
2021/11/23 05:58:36;;;;;;;35.70;15.72;;;;;;;4.51;90.69;98000.32;1670382;85;21014;-73
2021/11/23 06:01:07;;;;;;;33.13;14.95;;;;;;;4.52;90.63;98008.19;1667796;86;21033;-73
2021/11/23 06:03:34;;;;;;;36.10;16.50;;;;;;;4.57;90.83;98009.04;1668777;85;21100;-73
2021/11/23 06:06:01;;;;;;;35.90;15.75;;;;;;;4.59;90.83;98019.11;1694310;84;21021;-73
2021/11/23 06:08:28;;;;;;;52.25;25.02;;;;;;;4.66;90.56;98019.06;1684700;84;21018;-73
2021/11/23 06:10:54;;;;;;;38.73;15.72;;;;;;;4.73;90.57;98020.34;1675980;86;20989;-73
2021/11/23 06:13:21;;;;;;;35.13;14.70;;;;;;;4.74;90.48;98029.09;1634117;86;21010;-73
2021/11/23 06:15:50;;;;;;;32.28;16.02;;;;;;;4.84;90.39;98038.66;1657669;84;21511;-74
2021/11/23 06:18:18;;;;;;;32.98;15.70;;;;;;;4.88;90.14;98036.45;1662508;84;21046;-73
2021/11/23 06:20:53;;;;;;;32.78;14.98;;;;;;;4.96;90.23;98055.22;1684966;84;21049;-74
2021/11/23 06:23:22;;;;;;;32.80;14.60;;;;;;;5.00;90.24;98051.70;1675453;84;21034;-74
2021/11/23 06:25:53;;;;;;;30.68;14.33;;;;;;;5.07;90.28;98063.90;1692365;84;20988;-74
2021/11/23 06:28:25;;;;;;;31.05;15.25;;;;;;;5.14;90.30;98066.94;1669915;83;21022;-73
2021/11/23 06:30:52;;;;;;;34.48;14.85;;;;;;;5.19;90.08;98065.58;1676233;85;21585;-74
2021/11/23 06:33:18;;;;;;;28.65;14.00;;;;;;;5.24;89.77;98070.81;1652800;84;21058;-73
2021/11/23 06:35:45;;;;;;;33.90;14.45;;;;;;;5.29;89.57;98072.51;1665214;86;20971;-74
2021/11/23 06:38:12;;;;;;;30.77;14.68;;;;;;;5.34;89.56;98075.55;1672382;84;21458;-74
2021/11/23 06:40:40;;;;;;;33.90;16.65;;;;;;;5.38;89.78;98080.80;1685488;84;21434;-73
2021/11/23 06:43:09;;;;;;;29.82;15.28;;;;;;;5.43;89.14;98090.41;1666290;83;21499;-74
2021/11/23 06:45:37;;;;;;;30.68;14.73;;;;;;;5.44;89.19;98074.59;1650650;86;21010;-74
2021/11/23 06:48:05;;;;;;;34.73;16.40;;;;;;;5.45;89.03;98080.73;1667555;84;21017;-74
2021/11/23 06:50:32;;;;;;;30.48;15.15;;;;;;;5.44;88.40;98085.11;1652491;85;20997;-74
2021/11/23 06:53:03;;;;;;;31.90;14.65;;;;;;;5.40;88.38;98088.67;1670470;85;20978;-74
2021/11/23 06:55:30;;;;;;;31.57;16.15;;;;;;;5.38;88.11;98099.62;1674897;85;20995;-74
2021/11/23 06:57:58;;;;;;;33.90;17.70;;;;;;;5.34;87.76;98102.72;1683510;84;21025;-74
2021/11/23 07:00:25;;;;;;;31.30;16.20;;;;;;;5.33;88.01;98106.66;1669927;85;21005;-74
2021/11/23 07:02:51;;;;;;;33.48;16.37;;;;;;;5.31;87.99;98110.61;1678737;84;20994;-74
2021/11/23 07:05:18;;;;;;;34.48;16.02;;;;;;;5.30;87.82;98115.44;1687215;84;21051;-74
2021/11/23 07:07:44;;;;;;;33.60;15.45;;;;;;;5.31;87.92;98115.87;1687531;83;21133;-74
2021/11/23 07:10:13;;;;;;;35.17;16.10;;;;;;;5.31;87.89;98110.61;1643372;87;21006;-74
2021/11/23 07:12:41;;;;;;;33.85;15.98;;;;;;;5.31;87.64;98126.84;1661062;85;20998;-73
2021/11/23 07:15:11;;;;;;;34.43;16.60;;;;;;;5.28;87.30;98129.90;1669444;86;21046;-73
2021/11/23 07:17:38;;;;;;;32.65;15.83;;;;;;;5.24;87.51;98123.38;1672548;85;21523;-73
2021/11/23 07:20:07;;;;;;;32.85;15.85;;;;;;;5.20;87.51;98125.16;1693046;84;20975;-73
2021/11/23 07:22:33;;;;;;;32.48;16.20;;;;;;;5.19;87.60;98128.64;1648914;85;21053;-73
2021/11/23 07:25:00;;;;;;;34.60;15.80;;;;;;;5.14;87.59;98129.98;1668309;85;21431;-73
2021/11/23 07:27:27;;;;;;;31.12;15.13;;;;;;;5.13;87.80;98129.99;1681571;85;21036;-73
2021/11/23 07:29:53;;;;;;;34.05;15.63;;;;;;;5.14;87.75;98129.98;1690060;84;21041;-73
2021/11/23 07:32:21;;;;;;;36.80;20.12;;;;;;;5.15;87.58;98133.50;1672473;85;20998;-72
2021/11/23 07:34:48;;;;;;;31.48;15.68;;;;;;;5.14;87.53;98139.61;1641597;86;21462;-73
2021/11/23 07:37:15;;;;;;;33.15;15.45;;;;;;;5.15;87.29;98136.13;1681163;85;20962;-73
2021/11/23 07:39:43;;;;;;;32.93;14.55;;;;;;;5.14;87.22;98138.30;1695051;84;21081;-73
2021/11/23 07:42:11;;;;;;;27.40;13.95;;;;;;;5.14;88.15;98128.67;1688557;83;21040;-73
2021/11/23 07:44:37;;;;;;;26.30;13.48;;;;;;;5.14;87.03;98130.42;1675408;85;21021;-75
2021/11/23 07:47:04;;;;;;;28.25;13.28;;;;;;;5.09;86.90;98139.66;1670666;84;20986;-75
2021/11/23 07:49:31;;;;;;;26.82;13.50;;;;;;;5.06;86.55;98139.66;1665842;86;21006;-77
2021/11/23 07:52:16;;;;;;;25.12;12.10;;;;;;;5.12;86.88;98143.55;1663841;85;21051;-75
2021/11/23 07:54:38;;;;;;;18.35;10.10;;;;;;;5.17;87.02;98147.49;1655526;85;21058;-74
2021/11/23 07:57:05;;;;;;;17.17;8.80;;;;;;;5.16;85.37;98147.06;1661023;85;21435;-74
2021/11/23 07:59:32;;;;;;;16.20;8.88;;;;;;;5.21;85.75;98156.22;1673483;85;21323;-76
2021/11/23 08:01:58;;;;;;;14.23;8.23;;;;;;;5.13;83.71;98157.16;1651586;85;21012;-73
2021/11/23 08:04:25;;;;;;;17.87;8.25;;;;;;;5.26;86.05;98155.75;1682443;84;21415;-75
2021/11/23 08:06:52;;;;;;;15.40;7.78;;;;;;;5.37;85.86;98151.33;1686186;84;20993;-75
2021/11/23 08:09:18;;;;;;;25.70;15.98;;;;;;;5.45;83.90;98157.85;1695414;84;21013;-75
2021/11/23 08:11:46;;;;;;;37.83;20.80;;;;;;;5.48;84.78;98163.07;1705598;84;22110;-76
2021/11/23 08:14:12;;;;;;;11.75;7.70;;;;;;;5.53;85.18;98167.00;1696387;85;21131;-79
2021/11/23 08:16:39;;;;;;;10.68;6.80;;;;;;;5.58;84.86;98173.10;1682882;84;20990;-76
2021/11/23 08:19:05;;;;;;;11.68;6.42;;;;;;;5.59;84.23;98177.47;1655062;85;21434;-78
2021/11/23 08:21:32;;;;;;;12.23;7.03;;;;;;;5.51;81.72;98177.95;1666775;86;21033;-77
2021/11/23 08:23:58;;;;;;;12.20;6.95;;;;;;;5.51;83.52;98180.16;1663813;86;21125;-77
2021/11/23 08:26:26;;;;;;;10.68;6.28;;;;;;;5.52;83.10;98177.95;1682462;84;21146;-78
2021/11/23 08:28:52;;;;;;;11.57;6.35;;;;;;;5.41;80.90;98195.09;1679876;85;21097;-78
2021/11/23 08:31:21;;;;;;;10.90;6.58;;;;;;;5.35;81.66;98202.16;1679936;85;21066;-78
2021/11/23 08:33:49;;;;;;;11.70;6.65;;;;;;;5.35;81.90;98210.05;1679892;85;21025;-78
2021/11/23 08:36:18;;;;;;;10.23;5.90;;;;;;;5.29;81.00;98216.20;1696005;83;21032;-78
2021/11/23 08:38:45;;;;;;;10.38;6.03;;;;;;;5.21;80.95;98220.59;1680220;84;21017;-78
2021/11/23 08:41:13;;;;;;;9.65;6.28;;;;;;;5.19;81.82;98220.60;1679487;85;21053;-78
2021/11/23 08:43:40;;;;;;;9.65;5.83;;;;;;;5.18;81.95;98212.29;1676401;84;21068;-78
2021/11/23 08:46:07;;;;;;;10.03;5.83;;;;;;;5.18;81.69;98227.20;1650237;87;21504;-78
2021/11/23 08:48:35;;;;;;;9.98;6.35;;;;;;;5.08;80.94;98225.92;1692320;84;20958;-77
2021/11/23 08:51:05;;;;;;;10.78;6.30;;;;;;;5.00;81.05;98222.44;1691447;85;22167;-79
2021/11/23 08:53:32;;;;;;;10.90;6.22;;;;;;;5.00;81.74;98214.56;1690051;84;21029;-79
2021/11/23 08:55:58;;;;;;;9.68;6.10;;;;;;;4.98;81.23;98212.39;1676927;85;21049;-79
2021/11/23 08:58:25;;;;;;;11.50;6.95;;;;;;;4.93;80.90;98216.33;1683062;84;21057;-78
2021/11/23 09:00:51;;;;;;;10.60;6.55;;;;;;;4.88;81.15;98222.92;1678991;85;21006;-77
2021/11/23 09:03:18;;;;;;;8.20;5.78;;;;;;;4.84;81.11;98226.42;1648154;86;21057;-77
2021/11/23 09:05:44;;;;;;;8.50;4.97;;;;;;;4.84;81.12;98219.86;1687042;84;20988;-77
2021/11/23 09:08:11;;;;;;;8.70;5.55;;;;;;;4.82;80.71;98217.66;1632828;86;22169;-78
2021/11/23 09:10:40;;;;;;;8.68;5.72;;;;;;;4.86;80.05;98223.34;1680487;84;21002;-78
2021/11/23 09:13:07;;;;;;;10.78;5.80;;;;;;;4.90;79.98;98225.52;1671032;84;20969;-80
2021/11/23 09:15:34;;;;;;;9.25;5.95;;;;;;;4.95;80.48;98218.95;1656855;85;21072;-79
2021/11/23 09:18:03;;;;;;;9.38;5.10;;;;;;;5.04;79.74;98225.49;1669685;84;21009;-80
2021/11/23 09:20:36;;;;;;;14.40;7.37;;;;;;;5.17;79.75;98226.31;1672781;84;21006;-80
2021/11/23 09:23:07;;;;;;;7.45;4.85;;;;;;;5.29;80.16;98218.82;1668144;84;21458;-80
2021/11/23 09:25:35;;;;;;;9.25;5.25;;;;;;;5.52;80.65;98216.06;1658063;84;21044;-79
2021/11/23 09:28:04;;;;;;;8.18;5.15;;;;;;;5.73;79.97;98213.33;1663115;85;21025;-80
2021/11/23 09:30:34;;;;;;;7.22;4.80;;;;;;;5.88;79.34;98208.39;1677222;84;20964;-80
2021/11/23 09:33:03;;;;;;;7.50;4.85;;;;;;;6.01;78.32;98210.48;1675120;84;21002;-80
2021/11/23 09:35:29;;;;;;;7.60;4.90;;;;;;;6.05;77.75;98213.12;1679633;84;21040;-80
2021/11/23 09:37:57;;;;;;;6.97;4.75;;;;;;;6.07;77.38;98212.66;1673817;84;21021;-80
2021/11/23 09:40:24;;;;;;;8.68;4.78;;;;;;;6.14;77.66;98199.47;1682225;84;21054;-79
2021/11/23 09:42:51;;;;;;;7.62;4.78;;;;;;;6.17;77.16;98208.21;1677395;84;21006;-79
2021/11/23 09:45:19;;;;;;;7.30;4.95;;;;;;;6.27;77.92;98206.36;1667607;84;21057;-79
2021/11/23 09:47:46;;;;;;;8.30;5.00;;;;;;;6.37;77.78;98204.53;1659722;84;21022;-79
2021/11/23 09:50:13;;;;;;;10.08;5.80;;;;;;;6.46;76.43;98203.56;1676191;84;21080;-78
2021/11/23 09:52:40;;;;;;;7.75;4.53;;;;;;;6.61;75.47;98211.77;1676416;84;20973;-78
2021/11/23 09:55:11;;;;;;;8.78;4.65;;;;;;;6.76;74.76;98211.19;1674834;84;21057;-78
2021/11/23 09:57:38;;;;;;;6.60;4.22;;;;;;;6.89;75.49;98212.77;1666382;84;21063;-78
2021/11/23 10:00:29;;;;;;;7.72;4.12;;;;;;;6.94;73.18;98211.42;1673427;83;21060;-78
2021/11/23 10:03:03;;;;;;;6.50;4.30;;;;;;;6.96;72.46;98205.67;1683202;84;20994;-81
2021/11/23 10:05:33;;;;;;;7.12;4.70;;;;;;;6.95;74.41;98203.94;1676063;84;21139;-80
2021/11/23 10:08:16;;;;;;;7.95;4.87;;;;;;;6.93;74.42;98207.90;1683447;83;21005;-80
2021/11/23 10:10:53;;;;;;;5.47;3.85;;;;;;;6.91;74.10;98200.91;1684861;84;21085;-80
2021/11/23 10:13:43;;;;;;;6.87;4.65;;;;;;;6.87;74.36;98200.07;1657262;84;21495;-80
2021/11/23 10:16:11;;;;;;;7.05;4.15;;;;;;;6.79;73.02;98193.58;1676372;84;21013;-78
2021/11/23 10:18:39;;;;;;;5.87;4.30;;;;;;;6.88;73.87;98200.95;1677587;84;21049;-79
2021/11/23 10:21:10;;;;;;;5.95;4.00;;;;;;;6.92;73.11;98196.05;1678621;85;21451;-80
2021/11/23 10:23:45;;;;;;;6.67;4.15;;;;;;;6.92;72.86;98199.58;1651890;87;21072;-79
2021/11/23 10:26:28;;;;;;;9.18;4.20;;;;;;;7.02;73.73;98192.41;1645794;87;21002;-81
2021/11/23 10:29:02;;;;;;;7.35;4.10;;;;;;;7.18;72.66;98198.38;1643948;84;21015;-79
2021/11/23 10:31:36;;;;;;;6.33;4.33;;;;;;;7.13;68.18;98197.56;1640739;85;20994;-81
2021/11/23 10:34:07;;;;;;;5.33;3.62;;;;;;;7.52;70.42;98189.17;1666213;84;21130;-81
2021/11/23 10:36:41;;;;;;;5.25;3.55;;;;;;;8.47;72.04;98190.75;1682235;84;21041;-82
2021/11/23 10:39:19;;;;;;;5.10;3.17;;;;;;;9.59;66.39;98185.92;1675707;84;21024;-82
2021/11/23 10:41:55;;;;;;;4.53;3.22;;;;;;;10.24;61.64;98180.84;1677776;84;21005;-82
2021/11/23 10:44:28;;;;;;;6.10;3.25;;;;;;;11.27;57.01;98179.00;1667943;84;20986;-80
2021/11/23 10:46:59;;;;;;;4.90;3.10;;;;;;;11.85;58.80;98169.28;1670797;84;21483;-79
2021/11/23 10:49:43;;;;;;;6.22;3.60;;;;;;;12.81;61.76;98166.55;1630372;87;20998;-79
2021/11/23 10:52:09;;;;;;;4.40;3.05;;;;;;;13.40;48.15;98157.72;1611031;88;21415;-80
2021/11/23 10:54:37;;;;;;;4.87;3.58;;;;;;;14.21;49.86;98156.34;1609804;88;21100;-79
2021/11/23 10:57:12;;;;;;;4.28;3.33;;;;;;;14.83;51.50;98147.07;1599763;86;21111;-79
2021/11/23 10:59:39;;;;;;;3.90;2.90;;;;;;;15.24;50.64;98139.91;1635800;86;21014;-79
2021/11/23 11:02:07;;;;;;;4.17;3.37;;;;;;;15.85;47.29;98141.92;1666497;84;21374;-79
2021/11/23 11:04:37;;;;;;;5.33;2.98;;;;;;;16.45;47.07;98138.58;1653859;86;21482;-77
2021/11/23 11:07:04;;;;;;;3.95;3.00;;;;;;;17.02;42.13;98138.72;1676401;85;21340;-79
2021/11/23 11:09:32;;;;;;;4.90;2.92;;;;;;;17.45;47.67;98127.98;1666853;85;21049;-78
2021/11/23 11:11:58;;;;;;;3.85;2.72;;;;;;;17.50;37.21;98133.95;1675264;84;22078;-79
2021/11/23 11:14:28;;;;;;;4.20;3.22;;;;;;;16.85;37.83;98135.60;1669943;84;20994;-78
2021/11/23 11:16:55;;;;;;;4.10;2.70;;;;;;;16.03;44.43;98127.30;1679441;84;21001;-79
2021/11/23 11:19:22;;;;;;;4.53;2.75;;;;;;;16.45;38.73;98129.21;1687977;85;21032;-79
2021/11/23 11:21:54;;;;;;;4.03;3.08;;;;;;;15.91;38.46;98142.95;1688214;85;21454;-78
2021/11/23 11:27:14;;;;;;;3.22;2.40;;;;;;;16.72;43.03;98134.94;1626119;84;21585;-76
2021/11/23 11:29:43;;;;;;;4.60;3.40;;;;;;;16.82;37.65;98127.27;1678602;84;20976;-76
2021/11/23 11:32:35;;;;;;;3.02;2.72;;;;;;;17.62;42.60;98125.70;1682093;84;20998;-76
2021/11/23 11:35:29;;;;;;;3.87;2.55;;;;;;;18.32;37.81;98123.08;1632588;85;21021;-77
2021/11/23 11:38:00;;;;;;;3.83;2.70;;;;;;;18.52;38.77;98115.16;1664393;85;20985;-74
2021/11/23 11:40:31;;;;;;;4.78;3.20;;;;;;;18.81;38.63;98113.86;1666978;84;21003;-75